createdAt,value
2022-11-28T00:01:27.588Z,4.30
2022-11-28T00:03:54.631Z,4.40
2022-11-28T00:06:21.883Z,4.40
2022-11-28T00:08:48.632Z,4.40
2022-11-28T00:11:17.176Z,4.40
2022-11-28T00:13:44.614Z,4.40
2022-11-28T00:16:16.089Z,4.40
2022-11-28T00:18:42.960Z,4.40
2022-11-28T00:21:12.633Z,4.40
2022-11-28T00:23:39.781Z,4.40
2022-11-28T00:26:18.447Z,4.40
2022-11-28T00:28:45.130Z,4.40
2022-11-28T00:31:16.873Z,4.50
2022-11-28T00:33:43.589Z,4.40
2022-11-28T00:36:11.072Z,4.40
2022-11-28T00:38:37.845Z,4.50
2022-11-28T00:41:10.648Z,4.50
2022-11-28T00:43:37.542Z,4.40
2022-11-28T00:46:04.414Z,4.40
2022-11-28T00:48:32.734Z,4.40
2022-11-28T00:51:14.247Z,4.50
2022-11-28T00:53:42.782Z,4.50
2022-11-28T00:56:12.104Z,4.50
2022-11-28T00:58:39.694Z,4.40
2022-11-28T01:01:18.975Z,4.50
2022-11-28T01:03:47.471Z,4.50
2022-11-28T01:06:28.145Z,4.50
2022-11-28T01:08:55.280Z,4.50
2022-11-28T01:11:22.725Z,4.50
2022-11-28T01:13:49.875Z,4.50
2022-11-28T01:16:17.021Z,4.60
2022-11-28T01:18:43.670Z,4.60
2022-11-28T01:21:11.164Z,4.60
2022-11-28T01:23:38.365Z,4.60
2022-11-28T01:26:08.353Z,4.50
2022-11-28T01:28:35.926Z,4.50
2022-11-28T01:31:05.496Z,4.50
2022-11-28T01:33:32.474Z,4.50
2022-11-28T01:36:00.067Z,4.50
2022-11-28T01:38:27.619Z,4.50
2022-11-28T01:40:54.750Z,4.40
2022-11-28T01:43:23.000Z,4.50
2022-11-28T01:45:49.663Z,4.50
2022-11-28T01:48:31.782Z,4.40
2022-11-28T01:51:06.515Z,4.50
2022-11-28T01:53:37.486Z,4.50
2022-11-28T01:56:16.051Z,4.40
2022-11-28T01:58:48.946Z,4.40
2022-11-28T02:01:17.147Z,4.40
2022-11-28T02:03:46.549Z,4.40
2022-11-28T02:06:16.185Z,4.40
2022-11-28T02:08:42.892Z,4.40
2022-11-28T02:11:48.298Z,4.30
2022-11-28T02:14:38.491Z,4.30
2022-11-28T02:17:33.140Z,4.40
2022-11-28T02:20:14.575Z,4.40
2022-11-28T02:23:09.725Z,4.40
2022-11-28T02:26:14.230Z,4.40
2022-11-28T02:29:26.821Z,4.40
2022-11-28T02:32:14.350Z,4.40
2022-11-28T02:35:05.721Z,4.30
2022-11-28T02:37:46.281Z,4.30
2022-11-28T02:40:24.713Z,4.30
2022-11-28T02:43:01.961Z,4.30
2022-11-28T02:45:46.755Z,4.30
2022-11-28T02:48:28.466Z,4.20
2022-11-28T02:51:17.907Z,4.20
2022-11-28T02:53:46.640Z,4.10
2022-11-28T02:56:13.832Z,4.10
2022-11-28T02:58:40.500Z,4.10
2022-11-28T03:01:17.113Z,4.10
2022-11-28T03:04:16.262Z,4.10
2022-11-28T03:07:12.472Z,4.20
2022-11-28T03:09:50.959Z,4.20
2022-11-28T03:12:44.457Z,4.20
2022-11-28T03:15:14.414Z,4.20
2022-11-28T03:18:11.767Z,4.20
2022-11-28T03:21:12.914Z,4.20
2022-11-28T03:23:59.875Z,4.30
2022-11-28T03:26:36.234Z,4.20
2022-11-28T03:29:22.002Z,4.30
2022-11-28T03:32:00.359Z,4.30
2022-11-28T03:34:34.828Z,4.30
2022-11-28T03:37:05.328Z,4.30
2022-11-28T03:39:39.297Z,4.20
2022-11-28T03:42:21.322Z,4.20
2022-11-28T03:44:57.773Z,4.20
2022-11-28T03:47:28.400Z,4.20
2022-11-28T03:49:58.395Z,4.20
2022-11-28T03:52:32.941Z,4.20
2022-11-28T03:55:06.341Z,4.20
2022-11-28T03:57:41.803Z,4.20
2022-11-28T04:00:15.591Z,4.30
2022-11-28T04:02:56.892Z,4.30
2022-11-28T04:05:26.642Z,4.30
2022-11-28T04:08:17.130Z,4.30
2022-11-28T04:11:05.868Z,4.30
2022-11-28T04:13:36.981Z,4.40
2022-11-28T04:16:19.742Z,4.40
2022-11-28T04:19:00.974Z,4.40
2022-11-28T04:21:35.740Z,4.40
2022-11-28T04:24:27.023Z,4.40
2022-11-28T04:27:06.022Z,4.40
2022-11-28T04:29:37.595Z,4.40
2022-11-28T04:32:06.287Z,4.40
2022-11-28T04:34:35.317Z,4.50
2022-11-28T04:37:09.598Z,4.50
2022-11-28T04:39:37.879Z,4.50
2022-11-28T04:42:11.659Z,4.50
2022-11-28T04:44:53.027Z,4.50
2022-11-28T04:47:19.766Z,4.50
2022-11-28T04:49:46.488Z,4.40
2022-11-28T04:52:40.204Z,4.40
2022-11-28T04:55:31.073Z,4.40
2022-11-28T04:58:08.768Z,4.40
2022-11-28T05:00:37.434Z,4.40
2022-11-28T05:03:05.419Z,4.30
2022-11-28T05:05:41.436Z,4.40
2022-11-28T05:08:08.107Z,4.40
2022-11-28T05:10:35.004Z,4.40
2022-11-28T05:13:01.794Z,4.40
2022-11-28T05:15:28.398Z,4.40
2022-11-28T05:17:55.010Z,4.40
2022-11-28T05:20:21.717Z,4.40
2022-11-28T05:22:48.517Z,4.40
2022-11-28T05:25:16.108Z,4.30
2022-11-28T05:27:42.734Z,4.30
2022-11-28T05:30:11.057Z,4.30
2022-11-28T05:32:37.862Z,4.30
2022-11-28T05:35:05.846Z,4.30
2022-11-28T05:37:33.898Z,4.30
2022-11-28T05:40:00.857Z,4.30
2022-11-28T05:42:28.417Z,4.30
2022-11-28T05:44:55.004Z,4.30
2022-11-28T05:47:23.679Z,4.30
2022-11-28T05:49:50.283Z,4.20
2022-11-28T05:52:16.911Z,4.20
2022-11-28T05:54:43.564Z,4.20
2022-11-28T05:57:10.232Z,4.20
2022-11-28T05:59:37.068Z,4.20
2022-11-28T06:02:03.931Z,4.10
2022-11-28T06:04:30.632Z,4.20
2022-11-28T06:06:57.272Z,4.20
2022-11-28T06:09:25.965Z,4.20
2022-11-28T06:11:53.234Z,4.20
2022-11-28T06:14:20.076Z,4.30
2022-11-28T06:16:46.878Z,4.20
2022-11-28T06:19:13.763Z,4.20
2022-11-28T06:21:40.646Z,4.30
2022-11-28T06:24:07.672Z,4.30
2022-11-28T06:26:34.297Z,4.30
2022-11-28T06:29:00.905Z,4.40
2022-11-28T06:31:29.900Z,4.40
2022-11-28T06:33:57.689Z,4.40
2022-11-28T06:36:26.300Z,4.40
2022-11-28T06:38:53.514Z,4.40
2022-11-28T06:41:21.405Z,4.50
2022-11-28T06:43:48.334Z,4.50
2022-11-28T06:46:18.746Z,4.50
2022-11-28T06:48:46.499Z,4.50
2022-11-28T06:51:13.245Z,4.50
2022-11-28T06:53:40.320Z,4.50
2022-11-28T06:56:13.819Z,4.50
2022-11-28T06:58:41.402Z,4.50
2022-11-28T07:01:11.953Z,4.50
2022-11-28T07:03:39.383Z,4.50
2022-11-28T07:06:08.305Z,4.40
2022-11-28T07:08:35.737Z,4.40
2022-11-28T07:11:20.450Z,4.40
2022-11-28T07:13:48.636Z,4.40
2022-11-28T07:16:20.850Z,4.40
2022-11-28T07:18:47.597Z,4.40
2022-11-28T07:21:14.698Z,4.40
2022-11-28T07:23:42.987Z,4.40
2022-11-28T07:26:11.278Z,4.40
2022-11-28T07:28:38.405Z,4.40
2022-11-28T07:31:06.551Z,4.40
2022-11-28T07:33:34.733Z,4.40
2022-11-28T07:36:03.442Z,4.40
2022-11-28T07:38:30.458Z,4.40
2022-11-28T07:41:06.054Z,4.40
2022-11-28T07:43:33.154Z,4.40
2022-11-28T07:46:01.596Z,4.40
2022-11-28T07:48:28.652Z,4.40
2022-11-28T07:50:55.268Z,4.40
2022-11-28T07:53:22.053Z,4.40
2022-11-28T07:55:48.686Z,4.40
2022-11-28T07:58:15.347Z,4.40
2022-11-28T08:00:42.051Z,4.40
2022-11-28T08:03:08.685Z,4.40
2022-11-28T08:05:35.367Z,4.40
2022-11-28T08:08:02.148Z,4.40
2022-11-28T08:10:28.846Z,4.40
2022-11-28T08:12:55.437Z,4.40
2022-11-28T08:15:22.071Z,4.50
2022-11-28T08:17:48.737Z,4.50
2022-11-28T08:20:15.372Z,4.50
2022-11-28T08:22:42.070Z,4.50
2022-11-28T08:25:09.155Z,4.50
2022-11-28T08:27:35.774Z,4.50
2022-11-28T08:30:02.369Z,4.50
2022-11-28T08:32:30.370Z,4.50
2022-11-28T08:34:57.203Z,4.50
2022-11-28T08:37:23.788Z,4.50
2022-11-28T08:39:50.452Z,4.50
2022-11-28T08:42:17.049Z,4.50
2022-11-28T08:44:43.667Z,4.50
2022-11-28T08:47:10.387Z,4.50
2022-11-28T08:49:37.716Z,4.50
2022-11-28T08:52:05.626Z,4.50
2022-11-28T08:54:32.235Z,4.50
2022-11-28T08:56:59.034Z,4.50
2022-11-28T08:59:25.687Z,4.60
2022-11-28T09:01:53.672Z,4.60
2022-11-28T09:04:21.484Z,4.60
2022-11-28T09:06:48.154Z,4.60
2022-11-28T09:09:15.057Z,4.60
2022-11-28T09:11:42.118Z,4.60
2022-11-28T09:14:08.790Z,4.60
2022-11-28T09:16:35.586Z,4.60
2022-11-28T09:19:02.346Z,4.60
2022-11-28T09:21:28.999Z,4.70
2022-11-28T09:23:56.519Z,4.60
2022-11-28T09:26:25.160Z,4.70
2022-11-28T09:28:52.324Z,4.70
2022-11-28T09:31:20.019Z,4.70
2022-11-28T09:33:49.046Z,4.70
2022-11-28T09:36:18.768Z,4.70
2022-11-28T09:38:46.100Z,4.70
2022-11-28T09:41:21.825Z,4.70
2022-11-28T09:43:54.737Z,4.70
2022-11-28T09:46:28.848Z,4.70
2022-11-28T09:49:00.658Z,4.70
2022-11-28T09:51:40.535Z,4.80
2022-11-28T09:54:10.230Z,4.80
2022-11-28T09:56:37.081Z,4.70
2022-11-28T09:59:19.267Z,4.80
2022-11-28T10:02:22.130Z,4.80
2022-11-28T10:05:19.230Z,4.80
2022-11-28T10:08:00.861Z,4.80
2022-11-28T10:10:50.296Z,4.90
2022-11-28T10:13:36.575Z,4.90
2022-11-28T10:16:25.665Z,4.90
2022-11-28T10:19:00.219Z,4.90
2022-11-28T10:21:48.275Z,4.90
2022-11-28T10:24:19.648Z,4.90
2022-11-28T10:26:54.109Z,5.00
2022-11-28T10:29:26.232Z,4.90
2022-11-28T10:31:58.111Z,5.00
2022-11-28T10:34:49.681Z,5.00
2022-11-28T10:37:23.814Z,5.00
2022-11-28T10:39:51.175Z,5.00
2022-11-28T10:42:35.344Z,5.00
2022-11-28T10:45:20.651Z,5.00
2022-11-28T10:48:38.068Z,5.00
2022-11-28T10:51:06.613Z,5.10
2022-11-28T10:54:14.512Z,5.10
2022-11-28T10:56:59.562Z,5.10
2022-11-28T10:59:56.259Z,5.10
2022-11-28T11:02:39.985Z,5.20
2022-11-28T11:05:11.451Z,5.10
2022-11-28T11:07:38.280Z,5.30
2022-11-28T11:10:36.420Z,5.20
2022-11-28T11:13:16.345Z,5.20
2022-11-28T11:15:45.829Z,5.20
2022-11-28T11:18:36.115Z,5.20
2022-11-28T11:21:18.593Z,5.20
2022-11-28T11:23:46.844Z,5.20
2022-11-28T11:26:27.345Z,5.20
2022-11-28T11:28:54.574Z,5.30
2022-11-28T11:31:31.796Z,5.30
2022-11-28T11:34:07.446Z,5.30
2022-11-28T11:36:36.521Z,5.40
2022-11-28T11:39:10.818Z,5.40
2022-11-28T11:41:39.813Z,5.40
2022-11-28T11:44:15.552Z,5.40
2022-11-28T11:46:54.933Z,5.40
2022-11-28T11:49:43.893Z,5.50
2022-11-28T11:52:26.377Z,5.50
2022-11-28T11:54:56.215Z,5.50
2022-11-28T11:57:33.039Z,5.50
2022-11-28T12:00:20.929Z,5.50
2022-11-28T12:03:33.546Z,5.50
2022-11-28T12:06:14.246Z,5.50
2022-11-28T12:08:51.602Z,5.60
2022-11-28T12:11:36.844Z,5.60
2022-11-28T12:14:25.774Z,5.60
2022-11-28T12:17:40.447Z,5.60
2022-11-28T12:20:24.542Z,5.60
2022-11-28T12:23:01.931Z,5.60
2022-11-28T12:25:43.524Z,5.60
2022-11-28T12:28:43.458Z,5.60
2022-11-28T12:31:40.011Z,5.60
2022-11-28T12:34:21.806Z,5.70
2022-11-28T12:37:09.834Z,5.70
2022-11-28T12:39:59.453Z,5.80
2022-11-28T12:42:42.311Z,5.80
2022-11-28T12:45:29.467Z,5.80
2022-11-28T12:48:20.514Z,5.80
2022-11-28T12:50:52.456Z,5.80
2022-11-28T12:53:27.915Z,5.80
2022-11-28T12:55:54.488Z,5.70
2022-11-28T12:59:00.211Z,5.70
2022-11-28T13:01:45.058Z,5.70
2022-11-28T13:04:49.877Z,5.70
2022-11-28T13:07:42.941Z,5.70
2022-11-28T13:10:27.975Z,5.70
2022-11-28T13:13:29.573Z,5.70
2022-11-28T13:16:13.696Z,5.70
2022-11-28T13:18:56.707Z,5.70
2022-11-28T13:21:44.360Z,5.70
2022-11-28T13:24:20.906Z,5.70
2022-11-28T13:27:00.417Z,5.70
2022-11-28T13:29:49.023Z,5.70
2022-11-28T13:32:46.172Z,5.70
2022-11-28T13:35:15.501Z,5.70
2022-11-28T13:40:56.462Z,5.70
2022-11-28T13:43:52.469Z,5.70
2022-11-28T13:46:19.909Z,5.70
2022-11-28T13:51:34.879Z,5.80
2022-11-28T13:54:22.503Z,5.80
2022-11-28T13:57:15.126Z,5.80
2022-11-28T13:59:49.475Z,5.80
2022-11-28T14:02:33.251Z,5.80
2022-11-28T14:05:00.351Z,5.80
2022-11-28T14:07:31.736Z,5.80
2022-11-28T14:10:15.917Z,5.80
2022-11-28T14:12:51.489Z,5.80
2022-11-28T14:15:28.753Z,5.80
2022-11-28T14:18:48.316Z,5.80
2022-11-28T14:21:18.149Z,5.80
2022-11-28T14:24:12.727Z,5.80
2022-11-28T14:26:42.802Z,5.70
2022-11-28T14:29:25.963Z,5.70
2022-11-28T14:32:21.857Z,5.70
2022-11-28T14:34:48.740Z,5.70
2022-11-28T14:37:21.342Z,5.80
2022-11-28T14:39:49.352Z,5.80
2022-11-28T14:42:36.802Z,5.80
2022-11-28T14:45:24.160Z,5.80
2022-11-28T14:48:27.524Z,5.80
2022-11-28T14:51:00.819Z,5.80
2022-11-28T14:53:36.885Z,5.80
2022-11-28T14:56:30.812Z,5.80
2022-11-28T14:59:02.274Z,5.80
2022-11-28T15:01:41.489Z,5.70
2022-11-28T15:04:17.217Z,5.70
2022-11-28T15:06:44.400Z,5.70
2022-11-28T15:09:27.606Z,5.70
2022-11-28T15:12:20.448Z,5.70
2022-11-28T15:14:53.308Z,5.70
2022-11-28T15:17:24.979Z,5.70
2022-11-28T15:19:52.022Z,5.70
2022-11-28T15:22:41.778Z,5.70
2022-11-28T15:25:22.585Z,5.70
2022-11-28T15:27:49.845Z,5.70
2022-11-28T15:30:20.143Z,5.70
2022-11-28T15:32:47.730Z,5.70
2022-11-28T15:35:18.372Z,5.70
2022-11-28T15:37:53.823Z,5.60
2022-11-28T15:40:33.518Z,5.70
2022-11-28T15:43:01.465Z,5.60
2022-11-28T15:45:36.869Z,5.60
2022-11-28T15:48:04.710Z,5.60
2022-11-28T15:50:33.761Z,5.60
2022-11-28T15:53:03.426Z,5.60
2022-11-28T15:55:33.950Z,5.60
2022-11-28T15:58:32.778Z,5.60
2022-11-28T16:01:20.900Z,5.60
2022-11-28T16:04:00.520Z,5.60
2022-11-28T16:06:30.863Z,5.60
2022-11-28T16:09:04.923Z,5.60
2022-11-28T16:11:33.161Z,5.60
2022-11-28T16:14:08.250Z,5.60
2022-11-28T16:16:38.023Z,5.60
2022-11-28T16:19:08.878Z,5.60
2022-11-28T16:21:35.442Z,5.60
2022-11-28T16:24:03.413Z,5.60
2022-11-28T16:26:38.198Z,5.50
2022-11-28T16:29:07.773Z,5.60
2022-11-28T16:31:35.256Z,5.50
2022-11-28T16:34:02.757Z,5.50
2022-11-28T16:36:37.334Z,5.50
2022-11-28T16:39:15.564Z,5.50
2022-11-28T16:42:16.322Z,5.50
2022-11-28T16:44:43.575Z,5.50
2022-11-28T16:47:28.481Z,5.50
2022-11-28T16:50:18.036Z,5.50
2022-11-28T16:52:50.785Z,5.50
2022-11-28T16:55:29.362Z,5.50
2022-11-28T16:58:16.050Z,5.50
2022-11-28T17:00:51.824Z,5.50
2022-11-28T17:03:42.675Z,5.50
2022-11-28T17:06:33.958Z,5.50
2022-11-28T17:09:07.765Z,5.50
2022-11-28T17:11:36.969Z,5.50
2022-11-28T17:14:10.138Z,5.40
2022-11-28T17:16:41.257Z,5.40
2022-11-28T17:19:08.052Z,5.40
2022-11-28T17:21:40.119Z,5.40
2022-11-28T17:24:16.070Z,5.40
2022-11-28T17:26:42.938Z,5.50
2022-11-28T17:29:14.996Z,5.40
2022-11-28T17:31:43.125Z,5.40
2022-11-28T17:34:17.208Z,5.40
2022-11-28T17:36:44.140Z,5.50
2022-11-28T17:39:13.147Z,5.50
2022-11-28T17:41:40.772Z,5.40
2022-11-28T17:44:14.335Z,5.40
2022-11-28T17:46:41.080Z,5.40
2022-11-28T17:49:07.682Z,5.40
2022-11-28T17:51:34.274Z,5.60
2022-11-28T17:54:00.913Z,5.40
2022-11-28T17:56:27.536Z,5.40
2022-11-28T17:58:54.160Z,5.40
2022-11-28T18:01:27.334Z,5.40
2022-11-28T18:03:54.078Z,5.40
2022-11-28T18:06:22.558Z,5.40
2022-11-28T18:08:50.578Z,5.40
2022-11-28T18:11:19.052Z,5.40
2022-11-28T18:13:45.790Z,5.40
2022-11-28T18:16:15.516Z,5.40
2022-11-28T18:18:42.179Z,5.40
2022-11-28T18:21:10.245Z,5.40
2022-11-28T18:23:41.708Z,5.40
2022-11-28T18:26:09.915Z,5.40
2022-11-28T18:28:36.767Z,5.40
2022-11-28T18:31:11.495Z,5.40
2022-11-28T18:33:39.080Z,5.40
2022-11-28T18:36:16.991Z,5.40
2022-11-28T18:38:46.808Z,5.40
2022-11-28T18:41:15.938Z,5.40
2022-11-28T18:43:42.908Z,5.40
2022-11-28T18:46:15.730Z,5.40
2022-11-28T18:48:44.894Z,5.50
2022-11-28T18:51:26.324Z,5.40
2022-11-28T18:53:54.074Z,5.40
2022-11-28T18:56:21.702Z,5.50
2022-11-28T18:58:53.862Z,5.50
2022-11-28T19:01:32.480Z,5.50
2022-11-28T19:04:05.654Z,5.50
2022-11-28T19:06:33.492Z,5.50
2022-11-28T19:09:01.815Z,5.50
2022-11-28T19:11:29.355Z,5.50
2022-11-28T19:13:56.210Z,5.50
2022-11-28T19:16:29.174Z,5.60
2022-11-28T19:18:56.660Z,5.60
2022-11-28T19:21:26.578Z,5.60
2022-11-28T19:23:55.535Z,5.60
2022-11-28T19:26:23.810Z,5.60
2022-11-28T19:28:50.961Z,5.60
2022-11-28T19:31:21.828Z,5.60
2022-11-28T19:34:01.259Z,5.50
2022-11-28T19:36:32.873Z,5.50
2022-11-28T19:39:00.651Z,5.50
2022-11-28T19:41:28.457Z,5.50
2022-11-28T19:43:56.519Z,5.50
2022-11-28T19:46:23.457Z,5.60
2022-11-28T19:48:51.602Z,5.60
2022-11-28T19:51:19.326Z,5.60
2022-11-28T19:53:46.017Z,5.60
2022-11-28T19:56:18.282Z,5.60
2022-11-28T19:58:45.735Z,5.60
2022-11-28T20:01:15.496Z,5.60
2022-11-28T20:03:43.181Z,5.70
2022-11-28T20:06:18.376Z,5.70
2022-11-28T20:08:45.455Z,5.70
2022-11-28T20:11:15.706Z,5.80
2022-11-28T20:13:43.471Z,5.80
2022-11-28T20:16:11.926Z,5.80
2022-11-28T20:18:40.544Z,5.80
2022-11-28T20:21:13.007Z,5.90
2022-11-28T20:23:45.075Z,5.90
2022-11-28T20:26:12.836Z,5.90
2022-11-28T20:28:40.881Z,5.90
2022-11-28T20:31:20.475Z,5.90
2022-11-28T20:33:48.425Z,5.90
2022-11-28T20:36:17.690Z,5.90
2022-11-28T20:38:44.637Z,5.80
2022-11-28T20:41:13.544Z,5.80
2022-11-28T20:43:40.838Z,5.80
2022-11-28T20:46:16.954Z,5.80
2022-11-28T20:48:44.603Z,5.80
2022-11-28T20:51:14.018Z,5.80
2022-11-28T20:53:41.392Z,5.80
2022-11-28T20:56:17.347Z,5.70
2022-11-28T20:58:44.781Z,5.70
2022-11-28T21:01:20.201Z,5.70
2022-11-28T21:03:47.205Z,5.70
2022-11-28T21:06:13.879Z,5.70
2022-11-28T21:08:41.191Z,5.70
2022-11-28T21:11:36.909Z,5.60
2022-11-28T21:14:06.717Z,5.60
2022-11-28T21:16:34.594Z,5.60
2022-11-28T21:19:07.472Z,5.60
2022-11-28T21:21:36.697Z,5.70
2022-11-28T21:24:09.478Z,5.70
2022-11-28T21:26:40.952Z,5.70
2022-11-28T21:29:12.068Z,5.70
2022-11-28T21:31:42.265Z,5.70
2022-11-28T21:34:14.037Z,5.70
2022-11-28T21:36:40.913Z,5.70
2022-11-28T21:39:07.549Z,5.70
2022-11-28T21:41:34.189Z,5.70
2022-11-28T21:44:01.173Z,5.60
2022-11-28T21:46:28.316Z,5.60
2022-11-28T21:48:55.399Z,5.60
2022-11-28T21:51:24.822Z,5.60
2022-11-28T21:53:52.127Z,5.60
2022-11-28T21:56:19.403Z,5.50
2022-11-28T21:58:46.005Z,5.50
2022-11-28T22:01:14.699Z,5.60
2022-11-28T22:03:43.578Z,5.60
2022-11-28T22:06:19.501Z,5.50
2022-11-28T22:08:46.531Z,5.50
2022-11-28T22:11:16.145Z,5.50
2022-11-28T22:13:45.168Z,5.50
2022-11-28T22:16:39.341Z,5.40
2022-11-28T22:19:06.123Z,5.40
2022-11-28T22:24:19.533Z,5.40
2022-11-28T22:26:46.162Z,5.40
2022-11-28T22:29:13.151Z,5.40
2022-11-28T22:31:39.932Z,5.40
2022-11-28T22:34:07.925Z,5.40
2022-11-28T22:36:34.531Z,5.40
2022-11-28T22:39:02.562Z,5.40
2022-11-28T22:41:29.964Z,5.40
2022-11-28T22:44:00.205Z,5.40
2022-11-28T22:46:27.387Z,5.40
2022-11-28T22:48:54.039Z,5.40
2022-11-28T22:51:23.433Z,5.40
2022-11-28T22:53:58.399Z,5.40
2022-11-28T22:56:26.001Z,5.40
2022-11-28T22:58:52.720Z,5.40
2022-11-28T23:01:22.757Z,5.40
2022-11-28T23:03:49.919Z,5.40
2022-11-28T23:06:22.590Z,5.50
2022-11-28T23:08:49.996Z,5.40
2022-11-28T23:11:22.577Z,5.50
2022-11-28T23:13:50.510Z,5.40
2022-11-28T23:16:25.274Z,5.40
2022-11-28T23:18:55.000Z,5.40
2022-11-28T23:21:24.123Z,5.40
2022-11-28T23:23:51.252Z,5.30
2022-11-28T23:26:29.030Z,5.30
2022-11-28T23:28:57.852Z,5.30
2022-11-28T23:31:30.517Z,5.30
2022-11-28T23:33:58.130Z,5.30
2022-11-28T23:36:27.526Z,5.30
2022-11-28T23:38:56.566Z,5.30
2022-11-28T23:41:23.911Z,5.30
2022-11-28T23:43:50.548Z,5.30
2022-11-28T23:46:21.317Z,5.30
2022-11-28T23:48:48.430Z,5.30
2022-11-28T23:51:16.664Z,5.20
2022-11-28T23:53:43.976Z,5.30
2022-11-28T23:56:13.374Z,5.30
2022-11-28T23:58:40.430Z,5.30
